Time;durP1;ratioP1;P1;durP2;ratioP2;P2;SDS_P1;SDS_P2;PMS_P1;PMS_P2;Temp;Humidity;BMP_temperature;BMP_pressure;BME280_temperature;BME280_humidity;BME280_pressure;Samples;Min_cycle;Max_cycle;Signal;HPM_P1;HPM_P2
2024/02/27 00:01:46;;;;;;;5.15;3.20;;;;;;;0.01;100.00;101829.00;5054390;28;20031;-81
2024/02/27 00:04:12;;;;;;;4.43;3.08;;;;;;;-0.05;100.00;101827.44;5052655;28;20048;-80
2024/02/27 00:06:37;;;;;;;7.07;3.42;;;;;;;-0.09;100.00;101836.31;5053981;28;20028;-81
2024/02/27 00:09:03;;;;;;;7.68;3.65;;;;;;;-0.06;100.00;101841.44;5053732;28;20316;-82
2024/02/27 00:11:29;;;;;;;7.30;3.83;;;;;;;-0.03;100.00;101843.97;5054053;28;20110;-81
2024/02/27 00:13:55;;;;;;;4.60;3.63;;;;;;;0.00;100.00;101832.56;5053945;28;20051;-81
2024/02/27 00:16:20;;;;;;;5.00;3.22;;;;;;;-0.02;100.00;101840.41;5053729;28;20041;-81
2024/02/27 00:18:47;;;;;;;10.05;3.70;;;;;;;-0.02;100.00;101844.81;5053964;28;20098;-81
2024/02/27 00:21:13;;;;;;;9.65;4.05;;;;;;;-0.04;100.00;101849.25;5053723;28;20423;-81
2024/02/27 00:23:39;;;;;;;5.60;3.80;;;;;;;0.01;100.00;101847.34;5053828;28;20074;-81
2024/02/27 00:26:05;;;;;;;10.20;3.83;;;;;;;0.06;100.00;101849.81;5053692;28;20035;-82
2024/02/27 00:28:30;;;;;;;8.35;4.35;;;;;;;0.08;100.00;101851.47;5053389;28;20174;-81
2024/02/27 00:30:55;;;;;;;7.10;4.05;;;;;;;0.15;100.00;101852.13;5053134;28;20118;-81
2024/02/27 00:33:21;;;;;;;4.13;3.70;;;;;;;0.15;100.00;101854.75;5053272;28;20032;-81
2024/02/27 00:35:46;;;;;;;8.13;3.75;;;;;;;0.12;100.00;101855.72;5053420;28;20114;-82
2024/02/27 00:38:12;;;;;;;8.88;4.07;;;;;;;0.09;100.00;101854.94;5053627;28;20382;-81
2024/02/27 00:40:37;;;;;;;10.77;4.20;;;;;;;0.04;100.00;101852.47;5051582;28;20098;-81
2024/02/27 00:43:03;;;;;;;7.53;3.97;;;;;;;-0.02;100.00;101853.50;5035475;28;20036;-81
2024/02/27 00:45:29;;;;;;;8.32;4.90;;;;;;;-0.06;100.00;101856.25;5052813;28;20075;-81
2024/02/27 00:47:56;;;;;;;9.77;4.07;;;;;;;-0.12;100.00;101859.94;5053217;28;20363;-82
2024/02/27 00:50:22;;;;;;;6.40;3.72;;;;;;;-0.15;100.00;101864.38;5052962;28;20029;-82
2024/02/27 00:52:47;;;;;;;7.68;3.45;;;;;;;-0.19;100.00;101859.25;5052735;28;20039;-81
2024/02/27 00:55:13;;;;;;;8.30;3.90;;;;;;;-0.19;100.00;101858.41;5051634;28;20112;-81
2024/02/27 00:57:38;;;;;;;3.58;3.03;;;;;;;-0.24;100.00;101853.31;5053368;28;20025;-81
2024/02/27 01:00:08;;;;;;;4.75;3.75;;;;;;;-0.25;100.00;101856.81;5051926;28;20032;-81
2024/02/27 01:02:37;;;;;;;7.25;3.35;;;;;;;-0.28;100.00;101862.13;5053397;28;20111;-81
2024/02/27 01:05:03;;;;;;;11.27;3.88;;;;;;;-0.30;100.00;101860.47;5052941;28;20025;-81
2024/02/27 01:07:29;;;;;;;5.60;3.67;;;;;;;-0.32;100.00;101851.81;5053081;28;20091;-80
2024/02/27 01:09:55;;;;;;;7.18;3.92;;;;;;;-0.36;100.00;101854.53;5052607;28;20438;-81
2024/02/27 01:12:20;;;;;;;8.15;3.80;;;;;;;-0.32;100.00;101862.28;5051504;28;20056;-80
2024/02/27 01:14:45;;;;;;;5.93;3.60;;;;;;;-0.28;100.00;101862.13;5052701;28;20025;-80
2024/02/27 01:17:11;;;;;;;8.40;3.67;;;;;;;-0.19;100.00;101861.03;5051063;28;20040;-80
2024/02/27 01:19:36;;;;;;;10.38;4.45;;;;;;;-0.07;100.00;101873.72;5051281;28;20037;-80
2024/02/27 01:22:02;;;;;;;9.63;3.88;;;;;;;0.00;100.00;101863.97;5051254;28;20037;-80
2024/02/27 01:24:28;;;;;;;10.77;4.18;;;;;;;0.12;100.00;101875.78;5052187;28;20037;-80
2024/02/27 01:26:53;;;;;;;7.07;3.65;;;;;;;0.13;100.00;101874.91;5051406;28;20025;-81
2024/02/27 01:29:18;;;;;;;7.10;4.03;;;;;;;0.17;100.00;101879.13;5052584;28;20033;-80
2024/02/27 01:31:44;;;;;;;6.70;3.88;;;;;;;0.19;100.00;101881.72;5052004;28;20048;-81
2024/02/27 01:34:11;;;;;;;12.82;4.53;;;;;;;0.24;100.00;101878.06;5052549;28;20036;-80
2024/02/27 01:36:37;;;;;;;5.65;3.15;;;;;;;0.31;100.00;101876.09;5052370;28;20041;-81
2024/02/27 01:39:04;;;;;;;7.55;3.72;;;;;;;0.34;100.00;101884.72;5052230;28;20029;-81
2024/02/27 01:41:30;;;;;;;6.32;3.33;;;;;;;0.38;100.00;101889.88;5052372;28;20073;-81
2024/02/27 01:43:55;;;;;;;10.57;3.40;;;;;;;0.35;100.00;101883.81;5051803;28;20505;-81
2024/02/27 01:46:21;;;;;;;7.40;3.40;;;;;;;0.32;100.00;101886.50;5052172;28;20049;-79
2024/02/27 01:48:47;;;;;;;5.93;3.63;;;;;;;0.36;100.00;101892.53;5052214;28;20104;-81
2024/02/27 01:51:15;;;;;;;11.20;3.55;;;;;;;0.36;100.00;101895.16;5051991;28;20041;-80
2024/02/27 01:53:44;;;;;;;6.30;3.33;;;;;;;0.30;100.00;101890.94;5051968;28;20424;-81
2024/02/27 01:56:10;;;;;;;8.77;3.63;;;;;;;0.25;100.00;101899.84;5052274;28;20120;-81
2024/02/27 01:58:36;;;;;;;5.70;3.58;;;;;;;0.19;100.00;101893.03;5052181;28;20029;-81
2024/02/27 02:01:05;;;;;;;9.75;3.50;;;;;;;0.20;100.00;101891.28;5051754;28;20125;-81
2024/02/27 02:03:35;;;;;;;10.40;3.33;;;;;;;0.20;100.00;101897.38;5051623;28;20501;-81
2024/02/27 02:06:02;;;;;;;6.00;3.42;;;;;;;0.18;100.00;101899.19;5051582;28;20091;-82
2024/02/27 02:08:28;;;;;;;4.90;3.47;;;;;;;0.17;100.00;101898.31;5051725;28;20438;-82
2024/02/27 02:10:54;;;;;;;7.68;3.05;;;;;;;0.17;100.00;101893.06;5051309;28;20037;-81
2024/02/27 02:13:20;;;;;;;5.85;2.60;;;;;;;0.25;100.00;101905.06;5051626;28;20037;-81
2024/02/27 02:15:46;;;;;;;7.07;3.10;;;;;;;0.26;100.00;101905.03;5051500;28;20080;-81
2024/02/27 02:18:12;;;;;;;10.23;3.15;;;;;;;0.28;100.00;101905.84;5051485;28;20222;-80
2024/02/27 02:20:39;;;;;;;5.00;2.78;;;;;;;0.24;100.00;101906.84;5051379;28;20213;-81
2024/02/27 02:23:05;;;;;;;8.57;3.00;;;;;;;0.20;100.00;101902.59;5051397;28;20086;-81
2024/02/27 02:25:32;;;;;;;7.35;2.58;;;;;;;0.19;100.00;101911.34;5051088;28;20048;-81
2024/02/27 02:27:58;;;;;;;10.25;2.60;;;;;;;0.18;100.00;101914.91;5051144;28;20455;-81
2024/02/27 02:30:24;;;;;;;7.75;2.75;;;;;;;0.17;100.00;101906.16;5051472;28;20104;-81
2024/02/27 02:32:51;;;;;;;3.30;2.28;;;;;;;0.15;100.00;101909.72;5049726;28;20040;-81
2024/02/27 02:35:17;;;;;;;5.18;2.58;;;;;;;0.11;100.00;101905.50;5051091;28;20037;-81
2024/02/27 02:37:48;;;;;;;6.32;2.50;;;;;;;0.08;100.00;101909.06;5050960;28;20029;-81
2024/02/27 02:40:15;;;;;;;15.38;3.17;;;;;;;0.02;100.00;101903.16;5051212;28;20040;-81
2024/02/27 02:42:41;;;;;;;3.65;2.65;;;;;;;-0.06;100.00;101905.97;5049188;28;20534;-83
2024/02/27 02:45:07;;;;;;;5.97;2.67;;;;;;;-0.14;100.00;101900.13;5050694;28;20458;-83
2024/02/27 02:47:32;;;;;;;6.47;2.60;;;;;;;-0.23;100.00;101896.00;5051091;28;20117;-83
2024/02/27 02:49:58;;;;;;;8.45;2.80;;;;;;;-0.33;100.00;101905.00;5050945;28;20434;-83
2024/02/27 02:52:23;;;;;;;7.28;2.42;;;;;;;-0.44;100.00;101900.94;5051048;28;20037;-82
2024/02/27 02:54:49;;;;;;;7.95;2.40;;;;;;;-0.52;100.00;101899.41;5051050;28;20036;-82
2024/02/27 02:57:15;;;;;;;7.18;2.40;;;;;;;-0.56;100.00;101898.66;5051124;28;20465;-83
2024/02/27 02:59:41;;;;;;;6.28;2.40;;;;;;;-0.61;100.00;101897.91;5049041;28;20341;-82
2024/02/27 03:02:06;;;;;;;10.20;2.80;;;;;;;-0.63;100.00;101905.78;5051158;28;20055;-82
2024/02/27 03:04:32;;;;;;;7.63;3.00;;;;;;;-0.59;100.00;101906.59;5050303;28;20079;-82
2024/02/27 03:06:58;;;;;;;6.90;2.80;;;;;;;-0.59;100.00;101906.59;5050839;28;20087;-82
2024/02/27 03:09:23;;;;;;;9.23;2.80;;;;;;;-0.58;100.00;101911.78;5051083;28;20053;-82
2024/02/27 03:11:49;;;;;;;5.43;2.45;;;;;;;-0.61;100.00;101916.22;5049066;28;20048;-83
2024/02/27 03:14:18;;;;;;;5.20;2.70;;;;;;;-0.64;100.00;101925.00;5049249;28;20032;-83
2024/02/27 03:16:45;;;;;;;8.43;2.75;;;;;;;-0.65;100.00;101918.06;5050739;28;20029;-82
2024/02/27 03:19:12;;;;;;;4.93;2.40;;;;;;;-0.64;100.00;101925.00;5050952;28;20106;-82
2024/02/27 03:21:37;;;;;;;3.55;2.33;;;;;;;-0.65;100.00;101925.91;5050815;28;20032;-82
2024/02/27 03:24:03;;;;;;;10.48;3.10;;;;;;;-0.58;100.00;101931.84;5049451;28;20116;-82
2024/02/27 03:26:28;;;;;;;14.57;2.75;;;;;;;-0.55;100.00;101921.31;5050719;28;20041;-82
2024/02/27 03:28:54;;;;;;;7.82;2.47;;;;;;;-0.47;100.00;101923.72;5049368;28;20418;-82
2024/02/27 03:31:19;;;;;;;7.03;2.65;;;;;;;-0.43;100.00;101920.13;5051253;28;20032;-82
2024/02/27 03:33:44;;;;;;;5.13;2.55;;;;;;;-0.43;100.00;101922.72;5050840;28;20124;-82
2024/02/27 03:36:10;;;;;;;5.30;3.00;;;;;;;-0.42;100.00;101919.19;5051186;28;20112;-82
2024/02/27 03:38:36;;;;;;;9.15;2.67;;;;;;;-0.41;100.00;101928.75;5051433;28;20427;-83
2024/02/27 03:41:01;;;;;;;5.70;2.60;;;;;;;-0.41;100.00;101937.47;5050708;28;20455;-83
2024/02/27 03:43:27;;;;;;;13.68;2.65;;;;;;;-0.41;100.00;101937.47;5050621;28;20090;-82
2024/02/27 03:45:53;;;;;;;7.22;2.58;;;;;;;-0.40;100.00;101933.09;5048634;28;20375;-82
2024/02/27 03:48:18;;;;;;;5.28;2.20;;;;;;;-0.38;100.00;101941.75;5050432;28;20045;-82
2024/02/27 03:50:43;;;;;;;8.15;2.30;;;;;;;-0.38;100.00;101947.00;5050640;28;20043;-81
2024/02/27 03:53:09;;;;;;;7.22;2.47;;;;;;;-0.41;100.00;101945.31;5050519;28;20482;-82
2024/02/27 03:55:35;;;;;;;4.50;2.45;;;;;;;-0.44;100.00;101953.22;5050562;28;20131;-83
2024/02/27 03:58:00;;;;;;;6.82;2.60;;;;;;;-0.44;100.00;101955.84;5049854;28;20099;-83
2024/02/27 04:00:26;;;;;;;5.75;2.70;;;;;;;-0.41;100.00;101958.38;5050032;28;20157;-82
2024/02/27 04:02:53;;;;;;;11.27;2.95;;;;;;;-0.41;100.00;101952.31;5049558;28;20037;-83
2024/02/27 04:05:18;;;;;;;8.25;2.47;;;;;;;-0.41;100.00;101963.59;5050018;28;20447;-82
2024/02/27 04:07:44;;;;;;;5.55;2.30;;;;;;;-0.37;100.00;101956.56;5049661;28;20045;-82
2024/02/27 04:10:10;;;;;;;8.02;2.55;;;;;;;-0.38;100.00;101966.13;5049937;28;20094;-81
2024/02/27 04:12:35;;;;;;;11.07;2.60;;;;;;;-0.36;100.00;101974.81;5050009;28;20033;-81
2024/02/27 04:15:01;;;;;;;5.18;2.45;;;;;;;-0.30;100.00;101979.03;5052006;28;20378;-82
2024/02/27 04:17:27;;;;;;;9.82;2.50;;;;;;;-0.26;100.00;101980.66;5053466;28;20109;-82
2024/02/27 04:19:53;;;;;;;13.10;2.90;;;;;;;-0.21;100.00;101977.91;5052137;28;20025;-83
2024/02/27 04:22:21;;;;;;;6.35;2.50;;;;;;;-0.18;100.00;101977.81;5052049;28;20052;-83
2024/02/27 04:24:46;;;;;;;4.63;2.45;;;;;;;-0.16;100.00;101978.66;5053333;28;20144;-81
2024/02/27 04:27:12;;;;;;;4.45;2.47;;;;;;;-0.14;100.00;101983.84;5053474;28;20036;-82
2024/02/27 04:29:40;;;;;;;5.07;2.30;;;;;;;-0.15;100.00;101990.84;5053095;28;20033;-81
2024/02/27 04:32:06;;;;;;;7.05;2.45;;;;;;;-0.12;100.00;101988.16;5053271;28;20083;-81
2024/02/27 04:34:32;;;;;;;9.15;2.67;;;;;;;-0.10;100.00;101990.72;5051734;28;20045;-81
2024/02/27 04:36:57;;;;;;;6.28;2.38;;;;;;;-0.11;100.00;101997.69;5053159;28;20087;-82
2024/02/27 04:39:22;;;;;;;12.88;2.47;;;;;;;-0.12;100.00;101997.72;5053077;28;20041;-82
2024/02/27 04:41:48;;;;;;;6.45;2.60;;;;;;;-0.14;100.00;101997.78;5053086;28;20041;-81
2024/02/27 04:44:13;;;;;;;5.00;2.50;;;;;;;-0.17;100.00;101992.63;5053154;28;20057;-83
2024/02/27 04:46:38;;;;;;;4.45;2.55;;;;;;;-0.21;100.00;101999.72;5053021;28;20051;-82
2024/02/27 04:49:04;;;;;;;9.40;2.60;;;;;;;-0.27;100.00;102007.72;5053066;28;20066;-83
2024/02/27 04:51:29;;;;;;;9.95;2.78;;;;;;;-0.32;100.00;102003.50;5053259;28;20033;-81
2024/02/27 04:53:55;;;;;;;10.95;2.80;;;;;;;-0.34;100.00;102006.16;5052978;28;20033;-81
2024/02/27 04:56:20;;;;;;;6.80;2.80;;;;;;;-0.30;100.00;102013.03;5053249;28;20412;-81
2024/02/27 04:58:45;;;;;;;5.57;2.60;;;;;;;-0.24;100.00;102006.75;5052870;28;20033;-81
2024/02/27 05:01:13;;;;;;;6.35;2.75;;;;;;;-0.24;100.00;102015.50;5051732;28;20050;-82
2024/02/27 05:03:40;;;;;;;7.40;2.92;;;;;;;-0.26;100.00;102013.81;5052763;28;20044;-82
2024/02/27 05:06:05;;;;;;;9.38;2.95;;;;;;;-0.32;100.00;102019.22;5052973;28;20036;-83
2024/02/27 05:08:30;;;;;;;7.25;2.70;;;;;;;-0.39;100.00;102021.97;5053023;28;20478;-83
2024/02/27 05:10:56;;;;;;;6.40;2.40;;;;;;;-0.31;100.00;102024.41;5052792;28;20029;-83
2024/02/27 05:13:21;;;;;;;8.90;3.20;;;;;;;-0.28;100.00;102028.69;5052602;28;20036;-84
2024/02/27 05:15:46;;;;;;;9.38;2.80;;;;;;;-0.33;100.00;102031.41;5052495;28;20044;-83
2024/02/27 05:18:12;;;;;;;9.98;2.80;;;;;;;-0.36;100.00;102024.50;5052334;28;20502;-83
2024/02/27 05:20:37;;;;;;;9.02;3.00;;;;;;;-0.37;100.00;102022.78;5052615;28;20047;-83
2024/02/27 05:23:03;;;;;;;6.70;2.97;;;;;;;-0.37;100.00;102027.16;5052584;28;20055;-81
2024/02/27 05:25:28;;;;;;;5.25;2.80;;;;;;;-0.39;100.00;102021.09;5052561;28;20037;-82
2024/02/27 05:27:54;;;;;;;7.80;3.30;;;;;;;-0.44;100.00;102020.38;5051445;28;20050;-81
2024/02/27 05:30:19;;;;;;;7.57;3.10;;;;;;;-0.45;100.00;102021.25;5052682;28;20508;-83
2024/02/27 05:32:45;;;;;;;4.38;2.83;;;;;;;-0.50;100.00;102025.75;5052121;28;20028;-83
2024/02/27 05:35:10;;;;;;;11.05;2.95;;;;;;;-0.61;100.00;102024.28;5052317;28;20037;-83
2024/02/27 05:37:36;;;;;;;10.57;3.20;;;;;;;-0.76;100.00;102022.91;5052440;28;20408;-83
2024/02/27 05:40:05;;;;;;;3.53;2.40;;;;;;;-0.89;100.00;102018.84;5052290;28;20089;-84
2024/02/27 05:42:30;;;;;;;10.23;2.80;;;;;;;-0.99;100.00;102017.34;5052203;28;20112;-83
2024/02/27 05:44:56;;;;;;;5.72;2.55;;;;;;;-1.11;100.00;102006.28;5051027;28;20036;-81
2024/02/27 05:47:21;;;;;;;4.10;2.40;;;;;;;-1.20;100.00;102019.56;5052304;28;20091;-83
2024/02/27 05:49:46;;;;;;;5.10;2.63;;;;;;;-1.33;100.00;102020.72;5050911;28;20040;-84
2024/02/27 05:52:12;;;;;;;3.38;2.40;;;;;;;-1.43;100.00;102014.84;5050910;28;20063;-83
2024/02/27 05:54:37;;;;;;;5.00;2.83;;;;;;;-1.50;100.00;102019.34;5052230;28;20465;-84
2024/02/27 05:57:04;;;;;;;5.25;2.70;;;;;;;-1.55;100.00;102023.81;5051829;28;20060;-85
2024/02/27 05:59:29;;;;;;;4.65;2.90;;;;;;;-1.59;100.00;102014.31;5051810;28;20072;-85
2024/02/27 06:01:55;;;;;;;7.80;3.28;;;;;;;-1.64;100.00;102009.19;5051640;28;20467;-85
2024/02/27 06:04:20;;;;;;;8.77;3.55;;;;;;;-1.66;100.00;102007.50;5051668;28;20103;-85
2024/02/27 06:06:45;;;;;;;7.32;2.97;;;;;;;-1.73;100.00;102005.91;5050227;28;20045;-84
2024/02/27 06:09:12;;;;;;;4.28;3.00;;;;;;;-1.78;100.00;102011.22;5051588;28;20171;-84
2024/02/27 06:11:38;;;;;;;4.93;3.00;;;;;;;-1.83;100.00;102008.69;5051765;28;20116;-84
2024/02/27 06:14:03;;;;;;;7.35;2.90;;;;;;;-1.83;100.00;102013.06;5054001;28;20064;-83
2024/02/27 06:16:29;;;;;;;7.95;3.42;;;;;;;-1.79;100.00;102010.38;5051546;28;20098;-84
2024/02/27 06:18:55;;;;;;;6.32;3.45;;;;;;;-1.76;100.00;102012.06;5051846;28;20033;-84
2024/02/27 06:24:05;;;;;;;7.53;3.58;;;;;;;-1.60;100.00;102010.84;5051278;28;20052;-82
2024/02/27 06:26:30;;;;;;;12.20;4.88;;;;;;;-1.51;100.00;102016.75;5049706;28;20391;-81
2024/02/27 06:28:56;;;;;;;15.00;4.68;;;;;;;-1.45;100.00;102019.22;5049592;28;20060;-82
2024/02/27 06:31:21;;;;;;;10.07;4.30;;;;;;;-1.44;100.00;102024.41;5051209;28;20096;-82
2024/02/27 06:33:46;;;;;;;8.23;4.75;;;;;;;-1.45;100.00;102030.56;5051056;28;20075;-86
2024/02/27 06:36:12;;;;;;;7.20;5.53;;;;;;;-1.38;100.00;102035.66;5049625;28;20038;-87
2024/02/27 06:38:38;;;;;;;9.60;5.65;;;;;;;-1.29;100.00;102035.44;5050427;28;20491;-86
2024/02/27 06:41:04;;;;;;;10.52;5.57;;;;;;;-1.17;100.00;102034.31;5051019;28;20032;-87
2024/02/27 06:43:29;;;;;;;10.63;4.90;;;;;;;-1.05;100.00;102041.84;5049718;28;20047;-86
2024/02/27 06:45:54;;;;;;;13.65;4.88;;;;;;;-0.95;100.00;102045.13;5049495;28;20056;-83
2024/02/27 06:48:20;;;;;;;13.80;4.70;;;;;;;-0.87;100.00;102050.19;5050818;28;20386;-88
2024/02/27 06:50:45;;;;;;;8.13;5.15;;;;;;;-0.78;100.00;102050.81;5051201;28;20029;-88
2024/02/27 06:53:12;;;;;;;9.70;5.63;;;;;;;-0.73;100.00;102056.81;5049508;28;20032;-87
2024/02/27 06:55:37;;;;;;;13.23;5.72;;;;;;;-0.66;100.00;102051.41;5050833;28;20032;-85
2024/02/27 06:58:03;;;;;;;15.57;6.80;;;;;;;-0.62;100.00;102058.31;5050697;28;20043;-86
2024/02/27 07:00:28;;;;;;;14.70;7.78;;;;;;;-0.54;100.00;102058.97;5050688;28;20182;-83
2024/02/27 07:02:54;;;;;;;19.75;8.43;;;;;;;-0.50;100.00;102065.84;5050601;28;20029;-82
2024/02/27 07:05:19;;;;;;;20.13;8.00;;;;;;;-0.45;100.00;102065.72;5048536;28;20360;-83
2024/02/27 07:07:45;;;;;;;15.30;8.60;;;;;;;-0.46;100.00;102059.66;5049057;28;20171;-89
2024/02/27 07:10:12;;;;;;;12.20;7.65;;;;;;;-0.49;100.00;102064.94;5051105;28;20419;-84
2024/02/27 07:12:40;;;;;;;14.18;7.25;;;;;;;-0.53;100.00;102060.69;5033358;28;20032;-88
2024/02/27 07:15:06;;;;;;;10.48;6.40;;;;;;;-0.56;100.00;102066.00;5051114;28;20033;-87
2024/02/27 07:17:31;;;;;;;10.38;5.28;;;;;;;-0.56;100.00;102073.84;5050530;28;20455;-85
2024/02/27 07:19:58;;;;;;;7.35;4.90;;;;;;;-0.56;100.00;102090.38;5060255;28;20064;-88
2024/02/27 07:22:24;;;;;;;11.25;5.35;;;;;;;-0.58;100.00;102097.41;5054860;28;20033;-87
2024/02/27 07:24:49;;;;;;;10.55;5.38;;;;;;;-0.55;100.00;102101.72;5050624;28;20542;-88
2024/02/27 07:27:15;;;;;;;16.33;5.50;;;;;;;-0.51;100.00;102111.19;5050885;28;20098;-88
2024/02/27 07:29:40;;;;;;;12.48;5.82;;;;;;;-0.40;100.00;102108.31;5050852;28;20033;-87
2024/02/27 07:32:06;;;;;;;13.15;6.03;;;;;;;-0.24;100.00;102108.78;5050204;28;20037;-89
2024/02/27 07:34:31;;;;;;;12.82;5.93;;;;;;;-0.10;100.00;102113.69;5050855;28;20143;-86
2024/02/27 07:36:57;;;;;;;14.75;6.13;;;;;;;-0.02;100.00;102107.34;5051483;28;20056;-88
2024/02/27 07:39:22;;;;;;;15.40;6.13;;;;;;;0.09;100.00;102117.56;5051499;28;20040;-89
2024/02/27 07:41:47;;;;;;;13.25;6.00;;;;;;;0.22;100.00;102111.97;5052870;28;20191;-88
2024/02/27 07:44:14;;;;;;;14.70;5.93;;;;;;;0.34;100.00;102117.75;5053374;28;20366;-88
2024/02/27 07:46:39;;;;;;;16.35;6.10;;;;;;;0.42;100.00;102112.31;5051438;28;20056;-88
2024/02/27 07:49:04;;;;;;;12.88;5.63;;;;;;;0.47;100.00;102110.41;5049694;28;20095;-86
2024/02/27 07:51:34;;;;;;;14.20;5.88;;;;;;;0.52;100.00;102098.06;5052869;28;20430;-87
2024/02/27 07:54:00;;;;;;;9.15;6.25;;;;;;;0.62;100.00;102097.78;5054562;28;20029;-89
2024/02/27 07:56:27;;;;;;;13.60;6.43;;;;;;;0.71;100.00;102094.91;5054065;28;20075;-89
2024/02/27 07:58:55;;;;;;;12.57;6.80;;;;;;;0.82;100.00;102098.06;5054002;28;20033;-87
2024/02/27 08:01:20;;;;;;;17.20;6.85;;;;;;;0.94;100.00;102090.72;5053723;28;20107;-87
2024/02/27 08:03:45;;;;;;;15.30;6.30;;;;;;;1.05;100.00;102093.91;5053761;28;20435;-88
2024/02/27 08:06:11;;;;;;;11.63;6.47;;;;;;;1.15;100.00;102091.84;5035468;28;20081;-84
2024/02/27 08:08:36;;;;;;;11.90;6.78;;;;;;;1.29;100.00;102094.03;5052671;28;20029;-85
2024/02/27 08:11:06;;;;;;;15.55;7.13;;;;;;;1.39;100.00;102095.47;5054068;28;20432;-84
2024/02/27 08:13:32;;;;;;;12.70;6.97;;;;;;;1.51;100.00;102089.81;5053781;28;20044;-83
2024/02/27 08:15:57;;;;;;;15.02;7.70;;;;;;;1.66;100.00;102093.72;5053484;28;20406;-82
2024/02/27 08:18:23;;;;;;;11.18;6.70;;;;;;;1.84;100.00;102096.63;5053342;28;20025;-82
2024/02/27 08:20:49;;;;;;;11.43;7.43;;;;;;;2.00;100.00;102096.94;5053868;28;20036;-83
2024/02/27 08:23:15;;;;;;;14.30;6.88;;;;;;;2.17;100.00;102099.00;5053561;28;20470;-82
2024/02/27 08:25:40;;;;;;;13.27;6.88;;;;;;;2.29;100.00;102091.53;5053654;28;20118;-81
2024/02/27 08:28:06;;;;;;;9.57;6.72;;;;;;;2.47;100.00;102105.78;5053744;28;20033;-81
2024/02/27 08:30:32;;;;;;;12.43;6.70;;;;;;;2.58;100.00;102101.91;5052947;28;20055;-82
2024/02/27 08:33:01;;;;;;;11.50;6.40;;;;;;;2.71;100.00;102110.19;5053670;28;20134;-81
2024/02/27 08:35:26;;;;;;;11.52;6.57;;;;;;;2.87;100.00;102110.50;5053065;28;20029;-82
2024/02/27 08:37:52;;;;;;;11.63;6.10;;;;;;;2.99;100.00;102108.22;5053283;28;20025;-83
2024/02/27 08:40:18;;;;;;;10.02;5.50;;;;;;;3.12;100.00;102107.75;5051989;28;20037;-81
2024/02/27 08:42:43;;;;;;;8.80;5.43;;;;;;;3.25;100.00;102094.97;5053211;28;20509;-82
2024/02/27 08:45:09;;;;;;;9.43;5.68;;;;;;;3.38;100.00;102092.72;5053236;28;20123;-82
2024/02/27 08:47:34;;;;;;;10.10;6.40;;;;;;;3.49;100.00;102091.38;5053053;28;20061;-82
2024/02/27 08:50:00;;;;;;;18.08;6.07;;;;;;;3.64;100.00;102087.25;5053045;28;20335;-82
2024/02/27 08:52:25;;;;;;;9.48;5.65;;;;;;;3.79;100.00;102088.41;5053341;28;20099;-82
2024/02/27 08:54:51;;;;;;;9.50;4.97;;;;;;;3.96;100.00;102084.19;5053676;28;20033;-83
2024/02/27 08:57:16;;;;;;;7.43;4.72;;;;;;;4.16;100.00;102084.16;5056712;28;20040;-82
2024/02/27 08:59:46;;;;;;;5.68;4.20;;;;;;;4.39;100.00;102075.25;5053988;28;20394;-81
2024/02/27 09:02:11;;;;;;;6.95;4.10;;;;;;;4.69;100.00;102073.94;5051946;28;20040;-81
2024/02/27 09:04:37;;;;;;;6.93;4.28;;;;;;;5.10;100.00;102074.59;5053101;28;20033;-82
2024/02/27 09:07:02;;;;;;;6.70;3.97;;;;;;;5.68;100.00;102072.69;5052679;28;20560;-80
2024/02/27 09:09:28;;;;;;;4.18;3.65;;;;;;;6.77;100.00;102089.09;5052855;28;20090;-80
2024/02/27 09:11:54;;;;;;;8.57;4.28;;;;;;;8.22;100.00;102081.63;5052547;28;20033;-81
2024/02/27 09:14:19;;;;;;;5.50;4.18;;;;;;;9.49;100.00;102092.25;5052751;28;20356;-81
2024/02/27 09:16:44;;;;;;;4.88;3.70;;;;;;;10.65;100.00;102097.72;5052818;28;20183;-80
2024/02/27 09:19:10;;;;;;;3.72;3.40;;;;;;;11.65;100.00;102093.94;5051257;28;20170;-80
2024/02/27 09:21:35;;;;;;;5.45;3.78;;;;;;;12.19;100.00;102094.38;5052320;28;20044;-79
2024/02/27 09:24:01;;;;;;;4.00;3.47;;;;;;;12.65;100.00;102098.75;5052397;28;20044;-81
2024/02/27 09:26:26;;;;;;;5.90;3.75;;;;;;;13.63;100.00;102101.59;5052299;28;20119;-81
2024/02/27 09:28:52;;;;;;;3.70;3.30;;;;;;;14.21;100.00;102107.38;5050911;28;20033;-80
2024/02/27 09:31:18;;;;;;;3.72;3.05;;;;;;;14.37;100.00;102098.00;5052150;28;20089;-81
2024/02/27 09:33:44;;;;;;;3.72;3.05;;;;;;;14.72;100.00;102102.09;5052309;28;20509;-81
2024/02/27 09:36:09;;;;;;;5.82;3.80;;;;;;;15.02;100.00;102095.00;5052021;28;20029;-81
2024/02/27 09:38:34;;;;;;;4.00;3.15;;;;;;;15.36;100.00;102092.81;5051765;28;20520;-82
2024/02/27 09:41:00;;;;;;;3.35;2.83;;;;;;;15.60;100.00;102091.53;5052094;28;20040;-84
2024/02/27 09:43:30;;;;;;;5.57;3.28;;;;;;;15.19;100.00;102094.34;5052214;28;20059;-79
2024/02/27 09:45:56;;;;;;;4.22;3.10;;;;;;;15.61;99.10;102095.91;5051514;28;20044;-80
2024/02/27 09:48:28;;;;;;;10.20;3.60;;;;;;;15.23;100.00;102102.97;5051886;28;20139;-82
2024/02/27 09:50:55;;;;;;;4.72;3.45;;;;;;;15.35;100.00;102099.16;5051830;28;20051;-81
2024/02/27 09:53:22;;;;;;;3.92;3.50;;;;;;;15.19;98.82;102102.38;5051753;28;20033;-84
2024/02/27 09:55:48;;;;;;;4.63;3.90;;;;;;;15.02;100.00;102093.19;5049798;28;20428;-86
2024/02/27 09:58:14;;;;;;;5.55;3.50;;;;;;;15.34;100.00;102090.25;5051887;28;20039;-81
2024/02/27 10:00:39;;;;;;;8.68;3.75;;;;;;;15.73;95.17;102086.72;5050346;28;20040;-80
2024/02/27 10:03:07;;;;;;;4.43;3.60;;;;;;;16.01;94.88;102082.34;5051688;28;20029;-78
2024/02/27 10:05:36;;;;;;;8.07;3.90;;;;;;;16.23;93.09;102077.63;5051249;28;20033;-78
2024/02/27 10:08:03;;;;;;;4.93;3.80;;;;;;;16.28;93.04;102069.13;5049968;28;20363;-79
2024/02/27 10:10:29;;;;;;;5.05;4.07;;;;;;;15.96;95.95;102067.66;5051735;28;20083;-81
2024/02/27 10:12:55;;;;;;;5.80;3.50;;;;;;;15.73;98.57;102067.09;5051281;28;20036;-80
2024/02/27 10:15:20;;;;;;;5.10;3.33;;;;;;;15.95;95.99;102065.97;5051634;28;20029;-81
2024/02/27 10:17:46;;;;;;;7.53;4.07;;;;;;;16.49;98.90;102063.53;5051367;28;20044;-78
2024/02/27 10:20:12;;;;;;;5.85;3.60;;;;;;;16.41;93.32;102058.91;5051343;28;20033;-79
2024/02/27 10:22:41;;;;;;;4.55;4.05;;;;;;;16.61;94.79;102056.97;5033136;28;20048;-80
2024/02/27 10:25:14;;;;;;;8.80;4.40;;;;;;;16.39;93.76;102052.81;5051354;28;20044;-82
2024/02/27 10:27:41;;;;;;;5.90;4.35;;;;;;;17.19;91.05;102057.63;5049774;28;20074;-81
2024/02/27 10:30:08;;;;;;;8.30;3.92;;;;;;;17.10;89.38;102059.41;5051214;28;20060;-79
2024/02/27 10:32:34;;;;;;;6.00;4.50;;;;;;;16.44;91.25;102063.97;5051075;28;20043;-80
2024/02/27 10:35:02;;;;;;;8.90;4.82;;;;;;;16.55;92.85;102063.78;5050855;28;20037;-78
2024/02/27 10:37:31;;;;;;;6.10;4.25;;;;;;;16.88;97.28;102060.66;5050603;28;20531;-81
2024/02/27 10:39:58;;;;;;;9.50;4.53;;;;;;;15.96;93.75;102065.84;5050778;28;20048;-82
2024/02/27 10:42:24;;;;;;;11.10;4.68;;;;;;;15.08;100.00;102056.97;5049190;28;20025;-82
2024/02/27 10:44:49;;;;;;;11.10;6.60;;;;;;;15.31;100.00;102062.88;5049152;28;20176;-84
2024/02/27 10:47:18;;;;;;;6.95;5.60;;;;;;;15.23;100.00;102062.75;5050757;28;20068;-81
2024/02/27 10:49:43;;;;;;;6.95;4.47;;;;;;;15.24;100.00;102062.63;5050717;28;20029;-82
2024/02/27 10:52:10;;;;;;;8.75;4.40;;;;;;;14.27;100.00;102071.16;5051084;28;20044;-82
2024/02/27 10:54:36;;;;;;;5.45;4.35;;;;;;;14.17;100.00;102070.28;5032660;28;20110;-78
2024/02/27 10:57:02;;;;;;;5.85;4.30;;;;;;;14.54;100.00;102062.56;5050770;28;20040;-82
2024/02/27 10:59:31;;;;;;;8.35;3.95;;;;;;;14.57;100.00;102073.00;5051179;28;20482;-81
2024/02/27 11:01:59;;;;;;;6.20;3.47;;;;;;;15.08;100.00;102081.06;5049068;28;20426;-82
2024/02/27 11:04:32;;;;;;;4.10;3.13;;;;;;;15.16;100.00;102078.53;5050686;28;20040;-82
2024/02/27 11:07:00;;;;;;;5.78;3.53;;;;;;;14.90;100.00;102079.06;5050094;28;20025;-81
2024/02/27 11:09:27;;;;;;;4.85;3.78;;;;;;;13.97;100.00;102072.81;5049141;28;20025;-82
2024/02/27 11:11:59;;;;;;;6.18;3.75;;;;;;;12.87;100.00;102075.69;5050226;28;20041;-82
2024/02/27 11:14:25;;;;;;;6.45;3.60;;;;;;;12.03;100.00;102076.00;5050138;28;20061;-82